Ogden, UT (84401)

11:06 PM MDT on August 28, 2014 (GMT -0600)
Harrisville 1411 | Change Station
CLOSE
Current Station
Personal Weather Station
Location: Ogden, UT
Elevation: 4310 ft
Nearby Weather Stations

Elev 4310 ft 41.26 °N, 111.98 °W | Updated 1 minute ago

Clear
Clear
64.7 °F
Feels Like 64.7 °F
N
1.0
Wind Variable Wind from SSE
Gusts 1.0 mph

Today
High -- | Low -- °F
--% Chance of Precip.
Yesterday
High -- | Low -- °F
Precip. -- in
6:50 AM 8:07 PM
Waxing Crescent, 12% visible
Pressure 29.95 in
Visibility 10.0 miles
Clouds Clear
Dew Point 47 °F
Humidity 53%
Rainfall 0.00 in
Snow Depth 0 in , 1 in , 0 in
UV 0 out of 12
Pollen 8.30 out of 12
PM2.5 Good
Flu Activity Not available.
METAR KOGD 290453Z 16009KT 10SM CLR 20/06 A3010 RMK AO2 SLP142 T02000061

More Conditions Fewer Conditions

Pressure 29.95 in
Visibility 10.0 miles
Clouds Clear
Dew Point 47 °F
Humidity 53%
Rainfall 0.00 in
Snow Depth 0 in , 1 in , 0 in
UV 0 out of 12
Pollen 8.30 out of 12
PM2.5 Good
Flu Activity Not available.
METAR KOGD 290453Z 16009KT 10SM CLR 20/06 A3010 RMK AO2 SLP142 T02000061

More Conditions Fewer Conditions

10-Day Weather Forecast

Almanac

Astronomy

Aug. 28, 2014 Rise Set
Actual Time 6:50 AM MDT 8:07 PM MDT
Civil Twilight 6:21 AM MDT 8:35 PM MDT
Nautical Twilight 5:47 AM MDT 9:09 PM MDT
Astronomical Twilight 5:11 AM MDT 9:45 PM MDT
Moon 9:48 AM MDT (8/28) 9:30 PM MDT (8/28)
Length of Visible Light 14h 13m
Length of Day
13h 16m
Tomorrow will be 2m 36s shorter.
Waxing Crescent, 12% of the Moon is Illuminated
Aug 29
Waxing Crescent
Sep 2
First Quarter
Sep 8
Full
Sep 15
Last Quarter
Sep 24
New

Yesterday's Extremes

State Highs State Lows

Community

WunderPhotos

Upload Photos

1,748,192 photos uploaded!

Nearby

Air Quality

  Air Quality AQ Index Pollutant
Yesterday Good
OZONE
Yesterday Good
PM10
Current Good
PM2.5
Thursday Moderate
OZONE
Friday Moderate
OZONE
Saturday Moderate
OZONE

Snow Depth

Station Depth Elevation
Ben Lomond Peak 0 in 8000 ft
Ben Lomond Trail 1 in 6000 ft
Little Bear 0 in 6550 ft
Horse Ridge 0 in 8160 ft
Hardscrabble 0 in 7250 ft

Earthquake Activity

City Distance Mag. Time & Date
No recent earthquake activity has been reported nearby.
Minimum magnitude displayed is 2.5.

Coastal Water Temperatures

Place Temperature
No Stations Reporting

Nearby Weather Stations